Time;durP1;ratioP1;P1;durP2;ratioP2;P2;SDS_P1;SDS_P2;PMS_P1;PMS_P2;Temp;Humidity;BMP_temperature;BMP_pressure;BME280_temperature;BME280_humidity;BME280_pressure;Samples;Min_cycle;Max_cycle;Signal;HPM_P1;HPM_P2
2022/06/21 00:00:43;;;;;;;2.33;1.13;;;;;;;23.70;43.10;98259.81;4971906;28;19910;-72
2022/06/21 00:03:10;;;;;;;1.92;1.13;;;;;;;23.68;42.96;98257.34;4955321;28;20110;-72
2022/06/21 00:05:38;;;;;;;2.22;1.20;;;;;;;23.66;42.99;98257.56;4972527;28;20035;-72
2022/06/21 00:08:05;;;;;;;;;;;;;;;23.63;42.99;98259.84;4972210;28;20510;-71
2022/06/21 00:10:34;;;;;;;2.45;1.20;;;;;;;23.55;43.27;98260.91;4972312;28;19958;-72
2022/06/21 00:13:01;;;;;;;3.13;1.35;;;;;;;23.50;43.41;98260.72;4971904;28;20123;-72
2022/06/21 00:15:27;;;;;;;2.03;1.40;;;;;;;23.47;43.51;98253.97;4971979;28;20177;-72
2022/06/21 00:17:52;;;;;;;3.92;1.30;;;;;;;23.46;43.39;98251.53;4971923;28;20125;-71
2022/06/21 00:20:20;;;;;;;6.28;1.27;;;;;;;23.42;43.70;98244.97;4971938;28;20104;-74
2022/06/21 00:22:46;;;;;;;;;;;;;;;23.39;43.65;98246.22;4997808;28;20160;-74
2022/06/21 00:25:16;;;;;;;3.45;1.20;;;;;;;23.30;43.91;98244.84;5013166;28;20000;-74
2022/06/21 00:27:41;;;;;;;4.97;1.50;;;;;;;23.27;43.95;98237.25;4995083;28;20073;-74
2022/06/21 00:30:07;;;;;;;2.88;1.30;;;;;;;23.27;43.96;98239.94;5011803;28;20444;-74
2022/06/21 00:32:32;;;;;;;2.28;1.20;;;;;;;23.23;43.98;98242.19;5012981;28;20120;-74
2022/06/21 00:34:58;;;;;;;1.48;0.98;;;;;;;23.21;44.15;98243.44;5011476;28;20034;-74
2022/06/21 00:37:23;;;;;;;3.65;1.30;;;;;;;23.19;43.77;98237.50;5011389;28;20472;-74
2022/06/21 00:39:51;;;;;;;3.38;1.38;;;;;;;23.13;43.81;98225.84;4995194;28;20045;-74
2022/06/21 00:42:21;;;;;;;2.50;1.23;;;;;;;23.15;44.00;98236.28;5011328;28;20030;-74
2022/06/21 00:44:55;;;;;;;2.47;1.33;;;;;;;23.11;44.00;98233.22;5011523;28;20030;-74
2022/06/21 00:47:27;;;;;;;2.38;1.38;;;;;;;23.07;44.21;98219.50;5011551;28;20033;-74
2022/06/21 00:49:59;;;;;;;2.63;1.27;;;;;;;23.05;44.32;98221.53;5011321;28;20400;-73
2022/06/21 00:52:36;;;;;;;2.33;1.40;;;;;;;23.03;43.99;98217.47;4979481;28;20026;-76
2022/06/21 00:55:05;;;;;;;2.97;1.27;;;;;;;23.02;44.04;98219.28;5011893;28;20073;-74
2022/06/21 00:57:36;;;;;;;3.22;1.35;;;;;;;22.97;44.17;98202.34;4995126;28;20038;-74
2022/06/21 01:00:34;;;;;;;1.60;1.20;;;;;;;22.97;44.45;98194.34;5012590;28;20488;-73
2022/06/21 01:03:02;;;;;;;5.70;1.30;;;;;;;22.92;44.35;98189.66;5014808;28;20065;-74
2022/06/21 01:05:29;;;;;;;2.22;1.25;;;;;;;22.90;44.58;98191.72;5015337;28;20041;-73
2022/06/21 01:07:55;;;;;;;2.83;1.20;;;;;;;22.91;44.20;98191.50;5015121;28;20057;-73
2022/06/21 01:10:23;;;;;;;3.75;1.30;;;;;;;22.91;44.63;98193.34;5015245;28;20511;-74
2022/06/21 01:12:49;;;;;;;1.95;1.38;;;;;;;22.90;44.21;98183.72;5015218;28;20057;-74
2022/06/21 01:15:30;;;;;;;3.00;1.10;;;;;;;22.88;44.30;98189.25;5015129;28;20030;-74
2022/06/21 01:17:57;;;;;;;5.30;1.67;;;;;;;22.88;44.54;98188.44;5015581;28;20038;-74
2022/06/21 01:20:24;;;;;;;3.05;1.38;;;;;;;22.80;44.63;98172.69;5015276;28;20045;-74
2022/06/21 01:22:59;;;;;;;3.53;1.80;;;;;;;22.87;44.76;98182.31;4998632;28;20394;-74
2022/06/21 01:25:53;;;;;;;1.80;1.40;;;;;;;22.87;44.77;98178.84;5016139;28;20022;-73
2022/06/21 01:28:18;;;;;;;4.32;1.67;;;;;;;22.82;44.67;98176.78;5001510;28;20374;-74
2022/06/21 01:30:45;;;;;;;3.25;1.58;;;;;;;22.85;44.82;98189.69;5014844;28;20080;-74
2022/06/21 01:33:13;;;;;;;3.25;1.50;;;;;;;22.87;44.46;98186.81;5014674;28;20034;-74
2022/06/21 01:35:44;;;;;;;3.65;1.50;;;;;;;22.85;44.46;98181.69;5014655;28;20045;-73
2022/06/21 01:38:12;;;;;;;2.30;1.38;;;;;;;22.87;44.53;98186.81;5014572;28;20034;-73
2022/06/21 01:40:41;;;;;;;2.13;1.50;;;;;;;22.84;44.32;98184.56;5014591;28;20579;-73
2022/06/21 01:43:08;;;;;;;1.95;1.30;;;;;;;22.82;44.64;98184.78;4998341;28;20037;-74
2022/06/21 01:45:42;;;;;;;2.38;1.70;;;;;;;22.80;44.66;98184.16;5014607;28;20473;-73
2022/06/21 01:48:22;;;;;;;1.98;1.48;;;;;;;22.76;44.57;98181.09;5014615;28;20499;-73
2022/06/21 01:50:48;;;;;;;4.57;1.90;;;;;;;22.75;44.99;98189.28;5014297;28;20037;-73
2022/06/21 01:53:13;;;;;;;4.20;1.48;;;;;;;22.71;44.68;98183.56;4998443;28;20058;-73
2022/06/21 01:56:06;;;;;;;3.97;1.50;;;;;;;22.71;44.53;98188.09;5014368;28;20115;-73
2022/06/21 01:58:34;;;;;;;2.08;1.63;;;;;;;22.68;44.57;98177.88;4999989;28;20045;-75
2022/06/21 02:01:05;;;;;;;3.22;2.20;;;;;;;22.67;44.79;98173.56;5014254;28;20022;-73
2022/06/21 02:03:32;;;;;;;4.35;2.80;;;;;;;22.64;44.94;98172.13;4998226;28;20557;-74
2022/06/21 02:06:01;;;;;;;3.70;1.97;;;;;;;22.63;45.08;98172.34;4998151;28;20124;-73
2022/06/21 02:08:32;;;;;;;4.28;2.10;;;;;;;22.61;45.22;98172.53;4997956;28;20107;-73
2022/06/21 02:10:59;;;;;;;3.45;1.80;;;;;;;22.61;45.19;98177.06;4997431;28;20034;-73
2022/06/21 02:13:31;;;;;;;6.38;1.63;;;;;;;22.58;44.94;98172.94;4997466;28;20034;-73
2022/06/21 02:16:06;;;;;;;3.17;1.50;;;;;;;22.56;45.24;98175.81;5015403;28;20040;-74
2022/06/21 02:18:33;;;;;;;4.57;1.80;;;;;;;22.55;44.79;98173.38;5014598;28;20029;-74
2022/06/21 02:21:38;;;;;;;3.03;1.90;;;;;;;22.54;44.75;98182.41;4997484;28;20026;-74
2022/06/21 02:24:03;;;;;;;2.17;1.27;;;;;;;22.49;45.25;98180.34;4973682;28;20046;-74
2022/06/21 02:26:29;;;;;;;2.58;1.50;;;;;;;22.48;45.11;98181.38;4957538;28;20061;-74
2022/06/21 02:28:55;;;;;;;2.00;1.30;;;;;;;22.44;44.87;98169.53;4972980;28;20090;-74
2022/06/21 02:31:21;;;;;;;2.50;1.50;;;;;;;22.46;45.02;98177.31;4973725;28;20026;-74
2022/06/21 02:33:46;;;;;;;2.72;1.40;;;;;;;22.44;44.90;98174.00;4973758;28;20043;-74
2022/06/21 02:36:16;;;;;;;2.38;1.60;;;;;;;22.43;45.14;98173.19;4973571;28;20046;-74
2022/06/21 02:38:50;;;;;;;2.30;1.50;;;;;;;22.38;44.87;98167.69;4957866;28;20402;-74
2022/06/21 02:41:26;;;;;;;2.47;1.20;;;;;;;22.41;45.11;98175.25;4973496;28;20035;-75
2022/06/21 02:44:13;;;;;;;3.38;1.75;;;;;;;22.41;45.11;98175.25;4973720;28;20039;-74
2022/06/21 02:46:40;;;;;;;5.45;1.50;;;;;;;22.39;45.06;98185.25;4973440;28;20121;-74
2022/06/21 02:49:10;;;;;;;1.63;1.30;;;;;;;22.37;44.87;98184.66;4973438;28;20080;-74
2022/06/21 02:51:50;;;;;;;2.38;1.38;;;;;;;22.40;45.11;98187.72;4973436;28;20724;-74
2022/06/21 02:54:32;;;;;;;3.20;1.70;;;;;;;22.43;44.86;98186.50;4972901;28;20082;-73
2022/06/21 02:57:02;;;;;;;2.95;1.48;;;;;;;22.48;44.97;98186.69;4973571;28;20062;-74
2022/06/21 02:59:28;;;;;;;5.90;1.50;;;;;;;22.54;45.05;98182.41;4998484;28;20033;-74
2022/06/21 03:02:00;;;;;;;2.80;1.40;;;;;;;22.70;44.63;98181.94;5012884;28;20029;-74
2022/06/21 03:04:37;;;;;;;3.55;1.50;;;;;;;23.01;43.94;98174.25;5013132;28;20119;-73
2022/06/21 03:07:03;;;;;;;2.80;1.52;;;;;;;23.32;43.24;98172.72;4996695;28;20046;-73
2022/06/21 03:09:28;;;;;;;3.05;1.55;;;;;;;23.62;42.92;98172.94;5013083;28;20050;-74
2022/06/21 03:11:59;;;;;;;2.75;1.50;;;;;;;23.96;41.97;98174.38;5012992;28;20053;-73
2022/06/21 03:14:27;;;;;;;2.20;1.58;;;;;;;24.29;41.25;98167.94;4996922;28;20189;-68
2022/06/21 03:16:52;;;;;;;2.38;1.60;;;;;;;24.63;40.53;98159.63;5012902;28;20053;-69
2022/06/21 03:19:25;;;;;;;3.35;1.90;;;;;;;25.01;39.96;98159.38;5012874;28;20049;-69
2022/06/21 03:21:50;;;;;;;2.20;1.50;;;;;;;25.38;38.79;98162.03;5012260;28;20040;-69
2022/06/21 03:24:19;;;;;;;5.57;1.52;;;;;;;25.76;38.28;98166.19;5012357;28;20033;-68
2022/06/21 03:26:47;;;;;;;5.22;1.33;;;;;;;26.18;42.16;98163.47;4995853;28;20124;-67
2022/06/21 03:29:12;;;;;;;;;;;;;;;26.89;40.58;98150.03;5012875;28;20036;-67
2022/06/21 03:31:40;;;;;;;2.08;1.10;;;;;;;27.53;38.54;98148.28;5012494;28;19909;-67
2022/06/21 03:34:07;;;;;;;11.18;1.70;;;;;;;28.21;37.21;98151.81;4996323;28;20037;-66
2022/06/21 03:36:33;;;;;;;7.80;1.33;;;;;;;28.86;35.62;98152.97;5012322;28;20045;-73
2022/06/21 03:41:42;;;;;;;6.57;1.77;;;;;;;29.57;34.47;98146.75;4998232;28;20057;-76
2022/06/21 03:42:11;;;;;;;23.08;1.40;;;;;;;30.38;32.33;98146.81;4961881;28;20039;-70
2022/06/21 03:44:45;;;;;;;2.70;1.38;;;;;;;30.76;31.04;98151.09;4956244;28;20059;-75
2022/06/21 03:47:15;;;;;;;2.92;1.20;;;;;;;31.12;30.09;98142.34;4956571;28;20102;-71
2022/06/21 03:49:40;;;;;;;6.50;1.40;;;;;;;31.51;29.34;98149.97;4940714;28;20037;-79
2022/06/21 03:52:10;;;;;;;5.90;1.60;;;;;;;31.96;28.52;98147.56;4972236;28;20046;-79
2022/06/21 03:54:47;;;;;;;6.10;1.75;;;;;;;32.40;27.60;98142.41;4940263;28;20055;-79
2022/06/21 03:57:40;;;;;;;3.35;1.70;;;;;;;33.11;26.44;98140.47;4956580;28;20473;-79
2022/06/21 04:00:07;;;;;;;2.38;1.60;;;;;;;33.63;25.81;98143.69;4968734;28;20125;-78
2022/06/21 04:02:43;;;;;;;3.63;1.58;;;;;;;34.00;24.69;98136.91;4956067;28;20122;-79
2022/06/21 04:05:18;;;;;;;2.95;1.70;;;;;;;34.58;24.08;98130.63;4956311;28;20045;-79
2022/06/21 04:07:58;;;;;;;2.60;1.50;;;;;;;35.07;23.29;98131.38;4972196;28;20055;-78
2022/06/21 04:10:26;;;;;;;5.35;1.45;;;;;;;35.56;22.93;98126.59;4941866;28;20053;-80
2022/06/21 04:12:57;;;;;;;5.30;1.42;;;;;;;35.85;22.48;98122.91;4972418;28;20600;-79
2022/06/21 04:15:34;;;;;;;2.05;1.30;;;;;;;36.27;21.94;98128.44;4973908;28;20458;-77
2022/06/21 04:17:59;;;;;;;4.68;1.40;;;;;;;36.88;21.30;98138.09;4963317;28;20050;-79
2022/06/21 04:20:29;;;;;;;3.35;1.65;;;;;;;37.30;20.65;98132.56;5013285;28;20033;-79
2022/06/21 04:22:54;;;;;;;4.53;1.50;;;;;;;37.75;20.49;98139.94;4995771;28;20037;-79
2022/06/21 04:25:36;;;;;;;2.75;1.40;;;;;;;38.24;19.45;98149.06;5013148;28;20021;-79
2022/06/21 04:28:15;;;;;;;5.28;1.45;;;;;;;38.76;18.77;98148.44;5012009;28;20022;-80
2022/06/21 04:31:04;;;;;;;3.90;1.50;;;;;;;39.11;18.45;98153.19;5013633;28;20088;-80
2022/06/21 04:33:51;;;;;;;4.28;1.60;;;;;;;39.44;18.26;98142.59;5012122;28;20061;-79
2022/06/21 04:36:23;;;;;;;4.43;1.90;;;;;;;39.67;18.05;98132.31;5013090;28;20030;-79
2022/06/21 04:38:58;;;;;;;7.10;2.10;;;;;;;40.16;17.80;98137.50;4996610;28;20037;-80
2022/06/21 04:41:48;;;;;;;5.38;1.88;;;;;;;40.62;16.96;98137.81;5012187;28;20099;-79
2022/06/21 04:44:17;;;;;;;6.07;1.98;;;;;;;41.01;16.68;98141.28;5019163;28;20041;-80
2022/06/21 04:47:17;;;;;;;3.95;1.90;;;;;;;41.40;16.47;98137.31;5012928;28;20049;-78
2022/06/21 04:49:50;;;;;;;6.50;1.98;;;;;;;41.90;15.70;98140.22;5012226;28;20119;-79
2022/06/21 04:52:30;;;;;;;6.88;2.13;;;;;;;42.22;15.79;98129.53;5012553;28;20045;-79
2022/06/21 04:54:56;;;;;;;8.02;1.92;;;;;;;42.57;15.31;98132.63;5011723;28;20037;-79
2022/06/21 04:57:24;;;;;;;7.32;1.70;;;;;;;42.98;15.38;98121.75;5012607;28;20029;-78
2022/06/21 04:59:52;;;;;;;6.03;2.10;;;;;;;43.31;14.90;98124.25;5011943;28;20030;-79
2022/06/21 05:02:17;;;;;;;4.43;1.70;;;;;;;43.66;14.85;98129.16;5011388;28;20037;-78
2022/06/21 05:04:43;;;;;;;5.50;1.90;;;;;;;43.97;14.57;98121.34;5012677;28;20034;-79
2022/06/21 05:07:17;;;;;;;8.60;1.90;;;;;;;44.38;14.40;98122.75;5011167;28;20034;-79
2022/06/21 05:09:42;;;;;;;5.50;1.60;;;;;;;44.70;13.99;98119.16;5013059;28;20497;-79
2022/06/21 05:12:18;;;;;;;6.37;1.47;;;;;;;45.00;13.68;98113.16;5011412;28;20172;-78
2022/06/21 05:14:49;;;;;;;4.15;1.50;;;;;;;45.30;13.38;98111.38;5013036;28;20152;-78
2022/06/21 05:17:16;;;;;;;3.17;1.30;;;;;;;45.74;13.76;98113.03;4995353;28;20061;-79
2022/06/21 05:19:45;;;;;;;6.47;1.30;;;;;;;46.02;13.37;98118.25;4995529;28;20088;-78
2022/06/21 05:22:41;;;;;;;4.00;1.40;;;;;;;46.47;12.53;98118.56;5011604;28;20038;-80
2022/06/21 05:25:21;;;;;;;5.03;1.25;;;;;;;46.81;12.29;98115.13;4971658;28;20402;-79
2022/06/21 05:28:13;;;;;;;2.95;0.95;;;;;;;47.17;11.95;98121.13;4971859;28;20461;-79
2022/06/21 05:30:45;;;;;;;2.92;0.90;;;;;;;47.32;11.25;98124.84;4955647;28;20031;-80
2022/06/21 05:33:54;;;;;;;2.20;1.00;;;;;;;47.66;11.48;98128.38;4971285;28;20042;-79
2022/06/21 05:36:22;;;;;;;6.43;1.00;;;;;;;48.03;10.91;98132.28;4895766;29;20544;-81
2022/06/21 05:38:53;;;;;;;5.15;1.10;;;;;;;48.18;10.97;98122.97;4895038;29;20032;-79
2022/06/21 05:41:30;;;;;;;2.17;0.85;;;;;;;48.40;11.11;98126.66;4895394;29;20045;-79
2022/06/21 05:44:19;;;;;;;2.60;0.93;;;;;;;48.53;10.67;98122.41;4895640;29;20063;-79
2022/06/21 05:46:46;;;;;;;5.18;1.30;;;;;;;48.59;10.40;98122.88;4897575;29;20382;-79
2022/06/21 05:49:22;;;;;;;3.08;1.20;;;;;;;48.63;10.54;98129.22;4898811;29;20131;-83
2022/06/21 05:51:48;;;;;;;5.07;1.27;;;;;;;48.71;10.75;98121.72;4882817;29;20040;-79
2022/06/21 05:54:15;;;;;;;2.90;0.95;;;;;;;48.82;10.64;98121.81;4898711;29;20497;-79
2022/06/21 05:56:40;;;;;;;6.50;1.20;;;;;;;48.89;10.57;98121.88;4898290;29;20052;-79
2022/06/21 05:59:08;;;;;;;2.57;1.00;;;;;;;48.83;10.81;98120.66;4899267;29;20401;-80
2022/06/21 06:01:51;;;;;;;2.45;1.27;;;;;;;48.88;10.56;98128.56;4918715;29;20040;-80
2022/06/21 06:04:34;;;;;;;5.10;1.30;;;;;;;48.88;10.84;98128.56;4920776;29;20139;-79
2022/06/21 06:07:00;;;;;;;3.95;1.25;;;;;;;48.93;10.52;98128.19;4974099;28;20144;-79
2022/06/21 06:09:29;;;;;;;2.43;1.10;;;;;;;48.94;10.52;98124.25;5013522;28;20513;-80
2022/06/21 06:12:28;;;;;;;3.17;1.35;;;;;;;48.89;10.57;98125.41;4998353;28;20041;-82
2022/06/21 06:15:09;;;;;;;3.85;1.30;;;;;;;48.89;10.52;98125.41;4954729;28;20147;-80
2022/06/21 06:17:44;;;;;;;6.82;1.50;;;;;;;48.90;11.00;98128.97;4939112;28;20046;-80
2022/06/21 06:20:12;;;;;;;6.80;1.60;;;;;;;48.83;10.79;98126.97;4955185;29;20099;-81
2022/06/21 06:22:41;;;;;;;5.68;1.65;;;;;;;48.79;10.24;98119.81;4954737;28;20082;-81
2022/06/21 06:25:15;;;;;;;6.85;1.60;;;;;;;48.76;10.28;98118.59;4955104;28;20054;-80
2022/06/21 06:27:47;;;;;;;4.97;1.65;;;;;;;48.72;11.05;98112.25;4954752;28;20071;-79
2022/06/21 06:30:17;;;;;;;6.63;1.48;;;;;;;48.72;10.88;98118.56;4954579;28;20042;-79
2022/06/21 06:32:46;;;;;;;6.28;1.45;;;;;;;48.66;10.83;98111.81;4954637;29;20063;-80
2022/06/21 06:35:20;;;;;;;6.95;1.50;;;;;;;48.60;10.75;98118.91;4955124;29;20046;-83
2022/06/21 06:37:46;;;;;;;5.00;1.67;;;;;;;48.51;10.81;98118.47;4955391;29;20402;-82
2022/06/21 06:40:18;;;;;;;4.28;1.13;;;;;;;48.46;11.21;98122.41;4939253;29;20518;-81
2022/06/21 06:42:44;;;;;;;4.63;1.50;;;;;;;48.39;10.92;98121.53;4954480;29;20035;-80
2022/06/21 06:45:12;;;;;;;6.73;1.30;;;;;;;48.30;11.04;98122.66;4954950;29;20035;-81
2022/06/21 06:47:40;;;;;;;5.20;1.60;;;;;;;48.20;11.17;98123.38;4954754;29;20046;-81
2022/06/21 06:50:05;;;;;;;2.40;1.17;;;;;;;48.08;11.25;98124.47;4954110;28;20047;-81
2022/06/21 06:53:13;;;;;;;3.83;1.13;;;;;;;47.80;11.88;98119.47;5005540;28;20084;-81
2022/06/21 06:55:46;;;;;;;9.38;1.60;;;;;;;47.80;11.82;98114.72;4957616;28;20085;-81
2022/06/21 06:58:28;;;;;;;8.70;1.40;;;;;;;47.73;11.79;98119.38;4973503;28;20432;-83
2022/06/21 07:01:17;;;;;;;7.85;1.20;;;;;;;47.55;11.62;98110.91;4957739;28;20035;-83
2022/06/21 07:03:47;;;;;;;4.00;1.10;;;;;;;47.51;12.11;98108.09;4965103;28;20039;-83
2022/06/21 07:06:33;;;;;;;3.97;1.17;;;;;;;47.39;11.67;98103.63;4973602;28;20035;-83
2022/06/21 07:09:11;;;;;;;5.38;1.00;;;;;;;47.22;12.15;98098.69;4973648;28;20051;-82
2022/06/21 07:11:39;;;;;;;7.78;1.30;;;;;;;47.12;12.33;98103.69;4941544;28;20034;-81
2022/06/21 07:14:12;;;;;;;6.15;1.17;;;;;;;46.97;12.50;98093.66;4973541;28;20190;-81
2022/06/21 07:16:37;;;;;;;2.65;1.10;;;;;;;46.86;12.84;98100.97;4973975;28;20390;-81
2022/06/21 07:19:04;;;;;;;2.47;1.20;;;;;;;46.72;12.32;98102.41;4972830;28;20050;-80
2022/06/21 07:21:30;;;;;;;2.28;1.20;;;;;;;46.63;12.32;98104.63;4973017;28;20038;-81
2022/06/21 07:23:57;;;;;;;6.57;1.10;;;;;;;46.49;13.08;98104.41;4973261;28;20043;-80
2022/06/21 07:26:33;;;;;;;5.03;1.10;;;;;;;46.35;13.08;98105.78;4972936;28;20143;-81
2022/06/21 07:29:01;;;;;;;;;;;;;;;46.12;13.05;98100.28;4974074;28;20038;-79
2022/06/21 07:31:33;;;;;;;2.90;1.20;;;;;;;46.03;13.34;98094.22;4990613;28;19969;-81
2022/06/21 07:34:12;;;;;;;4.82;1.05;;;;;;;45.91;13.33;98097.16;4996503;28;20036;-80
2022/06/21 07:36:45;;;;;;;7.15;1.17;;;;;;;45.76;13.81;98096.91;5012646;28;20022;-80
2022/06/21 07:39:21;;;;;;;3.55;1.08;;;;;;;45.68;13.47;98095.19;5013151;28;20037;-80
2022/06/21 07:41:50;;;;;;;3.25;1.10;;;;;;;45.56;13.15;98090.63;4997678;28;20026;-81
2022/06/21 07:44:26;;;;;;;5.22;1.17;;;;;;;45.38;13.73;98086.75;5012906;28;20111;-81
2022/06/21 07:46:53;;;;;;;3.50;1.10;;;;;;;45.25;13.93;98086.91;5012681;28;20037;-81
2022/06/21 07:49:27;;;;;;;5.30;1.02;;;;;;;45.08;14.08;98090.88;4996356;28;20121;-80
2022/06/21 07:51:56;;;;;;;2.35;1.10;;;;;;;44.93;14.01;98081.53;4997171;28;20044;-81
2022/06/21 07:54:22;;;;;;;4.35;1.20;;;;;;;44.74;13.78;98087.81;5012696;28;20096;-81
2022/06/21 07:56:55;;;;;;;6.30;1.10;;;;;;;44.55;14.21;98076.75;5013879;28;20037;-83
2022/06/21 07:59:23;;;;;;;1.98;1.05;;;;;;;44.40;14.29;98081.91;5013167;28;20026;-80
2022/06/21 08:07:35;;;;;;;3.65;1.10;;;;;;;43.94;14.92;98080.81;5013976;28;20041;-82
2022/06/21 08:10:19;;;;;;;7.90;1.10;;;;;;;43.84;15.14;98076.63;4996140;28;20033;-81
2022/06/21 08:12:44;;;;;;;3.65;1.20;;;;;;;43.78;14.59;98076.06;4997378;28;20481;-84
2022/06/21 08:15:10;;;;;;;4.67;1.40;;;;;;;43.66;14.95;98082.44;4996229;28;20036;-82
2022/06/21 08:17:44;;;;;;;6.30;1.30;;;;;;;43.52;14.88;98084.81;5012067;28;20053;-82
2022/06/21 08:20:31;;;;;;;4.20;1.15;;;;;;;43.19;15.24;98080.34;5012112;28;20069;-81
2022/06/21 08:23:14;;;;;;;1.85;1.02;;;;;;;43.07;15.47;98075.72;5013745;28;20113;-80
2022/06/21 08:26:27;;;;;;;2.13;1.20;;;;;;;42.73;15.84;98088.03;4997347;28;20030;-81
2022/06/21 08:29:15;;;;;;;2.95;1.13;;;;;;;42.59;15.80;98094.72;5009569;28;20489;-81
2022/06/21 08:31:42;;;;;;;3.67;1.30;;;;;;;42.55;15.64;98093.78;5012161;28;20037;-80
2022/06/21 08:34:13;;;;;;;6.80;1.30;;;;;;;42.02;16.41;98079.13;4996095;28;20030;-82
2022/06/21 08:36:43;;;;;;;3.72;1.05;;;;;;;41.91;16.17;98074.09;5013733;28;20030;-81
2022/06/21 08:39:36;;;;;;;6.13;1.45;;;;;;;41.62;16.37;98079.72;4996211;28;20041;-80
2022/06/21 08:42:17;;;;;;;5.18;1.20;;;;;;;41.27;16.91;98069.88;4982027;28;20081;-82
2022/06/21 08:48:01;;;;;;;6.68;1.30;;;;;;;41.11;17.12;98072.44;5013427;28;20508;-81
2022/06/21 08:50:36;;;;;;;2.75;1.30;;;;;;;41.05;17.54;98087.47;5013568;28;20026;-81
2022/06/21 08:53:24;;;;;;;2.35;1.23;;;;;;;40.99;17.63;98091.53;5012211;28;20034;-82
2022/06/21 08:55:49;;;;;;;2.97;1.30;;;;;;;41.04;17.82;98091.38;5011995;28;20030;-82
2022/06/21 08:58:41;;;;;;;2.20;1.20;;;;;;;40.97;17.86;98080.16;5013576;28;20026;-81
2022/06/21 09:01:29;;;;;;;3.17;1.30;;;;;;;40.95;17.81;98079.69;5013388;28;20176;-81
2022/06/21 09:04:20;;;;;;;2.67;1.20;;;;;;;40.81;18.38;98086.19;4996769;28;20034;-81
2022/06/21 09:07:28;;;;;;;3.00;1.30;;;;;;;40.80;18.15;98078.31;5011790;28;20548;-81
2022/06/21 09:10:18;;;;;;;3.00;1.10;;;;;;;40.76;18.03;98077.38;4998358;28;20449;-82
2022/06/21 09:12:47;;;;;;;2.78;1.20;;;;;;;40.83;17.74;98085.84;5028592;28;20507;-83
2022/06/21 09:15:32;;;;;;;3.83;1.20;;;;;;;40.93;17.97;98081.94;5013556;28;20493;-82
2022/06/21 09:18:27;;;;;;;3.17;1.10;;;;;;;40.92;18.30;98074.88;5011998;28;20508;-81
2022/06/21 09:20:59;;;;;;;2.75;1.05;;;;;;;40.96;18.06;98082.09;4995931;28;20042;-81
2022/06/21 09:23:51;;;;;;;2.13;1.08;;;;;;;40.84;18.40;98076.50;5016994;28;20551;-81
2022/06/21 09:26:24;;;;;;;1.90;1.20;;;;;;;40.72;17.65;98077.22;5016842;28;20088;-81
2022/06/21 09:29:11;;;;;;;2.03;1.10;;;;;;;40.47;17.65;98074.34;5015994;28;20038;-82
2022/06/21 09:32:13;;;;;;;4.78;1.50;;;;;;;40.11;18.06;98072.91;5031879;28;20032;-82
2022/06/21 09:34:42;;;;;;;2.03;1.20;;;;;;;40.01;17.92;98070.56;4975554;28;20043;-82
2022/06/21 09:37:18;;;;;;;3.80;1.48;;;;;;;39.80;17.72;98064.97;4975316;28;20043;-80
2022/06/21 09:40:02;;;;;;;2.42;1.17;;;;;;;39.76;18.32;98067.53;4974928;28;20042;-81
2022/06/21 09:42:48;;;;;;;3.05;1.35;;;;;;;39.46;18.47;98066.63;4975545;28;20031;-81
2022/06/21 09:45:22;;;;;;;4.57;1.45;;;;;;;39.44;18.00;98068.88;4975341;28;20506;-81
2022/06/21 09:47:50;;;;;;;3.78;1.50;;;;;;;39.36;18.40;98070.50;4975592;28;20042;-82
2022/06/21 09:50:37;;;;;;;2.67;1.33;;;;;;;39.35;18.62;98060.72;4975326;28;20061;-80
2022/06/21 09:53:24;;;;;;;1.75;1.40;;;;;;;39.27;18.97;98053.34;4975318;28;20042;-81
2022/06/21 09:56:14;;;;;;;5.13;1.20;;;;;;;39.16;18.77;98054.81;4975297;28;20038;-80
2022/06/21 09:59:04;;;;;;;3.00;1.30;;;;;;;38.89;19.32;98060.22;4975293;28;20034;-81
2022/06/21 10:02:37;;;;;;;2.65;1.30;;;;;;;38.90;19.50;98048.22;4975019;28;20035;-81
2022/06/21 10:05:05;;;;;;;2.72;1.40;;;;;;;38.86;19.49;98051.91;4845569;29;20111;-81
2022/06/21 10:08:09;;;;;;;2.80;1.30;;;;;;;38.78;19.19;98052.66;4861664;29;20510;-82
2022/06/21 10:10:45;;;;;;;2.97;1.40;;;;;;;38.72;19.56;98044.66;4863191;29;20057;-81
2022/06/21 10:13:17;;;;;;;2.78;1.48;;;;;;;38.66;19.43;98045.94;4880074;29;20608;-81
2022/06/21 10:16:01;;;;;;;2.72;1.40;;;;;;;38.66;19.93;98051.38;4880186;29;20202;-81
2022/06/21 10:18:54;;;;;;;4.63;1.42;;;;;;;38.73;20.14;98038.09;4864110;29;20041;-80
2022/06/21 10:21:47;;;;;;;2.15;1.40;;;;;;;38.82;19.94;98037.28;4879088;29;20052;-80
2022/06/21 10:24:37;;;;;;;1.88;1.23;;;;;;;38.89;19.77;98032.94;4879428;29;20463;-80
2022/06/21 10:27:30;;;;;;;2.58;1.40;;;;;;;38.93;19.97;98021.41;4879170;29;20072;-81
2022/06/21 10:30:17;;;;;;;2.00;1.10;;;;;;;39.00;19.91;98018.97;4878765;29;20495;-81
2022/06/21 10:32:56;;;;;;;2.33;1.17;;;;;;;38.99;19.89;98012.72;4878146;29;20120;-82
2022/06/21 10:35:34;;;;;;;1.92;1.13;;;;;;;38.87;20.02;98010.66;4879243;29;20072;-80
2022/06/21 10:38:25;;;;;;;3.83;1.27;;;;;;;38.86;20.00;98008.25;4884227;29;20040;-81
2022/06/21 10:41:00;;;;;;;2.65;1.17;;;;;;;38.72;20.26;98020.09;4910267;29;20054;-80
2022/06/21 10:43:51;;;;;;;1.80;1.20;;;;;;;38.63;20.27;98008.38;4916477;29;20046;-81
2022/06/21 10:46:35;;;;;;;2.38;1.20;;;;;;;38.53;20.42;98012.22;4916305;29;20056;-80
2022/06/21 10:49:15;;;;;;;2.13;1.40;;;;;;;38.40;20.57;98021.34;4916534;29;20032;-80
2022/06/21 10:52:37;;;;;;;3.45;1.23;;;;;;;38.17;20.79;98007.03;4916743;29;20056;-80
2022/06/21 10:55:37;;;;;;;2.90;1.40;;;;;;;37.97;21.18;98009.19;4860423;29;20037;-80
2022/06/21 10:58:20;;;;;;;1.73;1.20;;;;;;;37.90;21.10;97999.88;4805970;29;20096;-80
2022/06/21 11:01:17;;;;;;;3.35;1.50;;;;;;;37.83;20.94;97998.41;4805278;29;20121;-79
2022/06/21 11:03:46;;;;;;;2.22;1.23;;;;;;;37.74;21.62;97994.03;4792266;29;20058;-80
2022/06/21 11:06:36;;;;;;;2.33;1.40;;;;;;;37.57;21.87;97998.25;4805082;29;20092;-82
2022/06/21 11:09:14;;;;;;;2.08;1.33;;;;;;;37.43;21.73;98002.97;4805060;29;20535;-83
2022/06/21 11:11:40;;;;;;;3.15;1.33;;;;;;;37.36;21.76;97997.97;4790121;29;20055;-82
2022/06/21 11:14:17;;;;;;;2.50;1.45;;;;;;;37.26;21.94;97996.31;4805112;29;20049;-81
2022/06/21 11:17:07;;;;;;;2.33;1.20;;;;;;;37.22;22.23;97998.06;4808312;29;20625;-81
2022/06/21 11:19:35;;;;;;;2.28;1.30;;;;;;;37.13;22.33;97994.44;4897337;29;20040;-81
2022/06/21 11:22:16;;;;;;;5.88;1.40;;;;;;;37.03;22.74;97992.00;4896985;29;20047;-81
2022/06/21 11:25:02;;;;;;;2.08;1.13;;;;;;;36.93;22.54;98002.00;4884302;29;20072;-81
2022/06/21 11:27:39;;;;;;;5.90;1.40;;;;;;;36.87;22.59;97995.06;4938036;29;20053;-81
2022/06/21 11:30:09;;;;;;;2.17;1.10;;;;;;;36.79;22.70;98000.44;4937724;29;20138;-81
2022/06/21 11:32:42;;;;;;;3.70;1.30;;;;;;;36.67;22.03;97993.59;4953751;28;20039;-81
2022/06/21 11:35:37;;;;;;;1.95;1.27;;;;;;;36.55;22.24;97985.19;5014373;28;20038;-81
2022/06/21 11:38:17;;;;;;;4.00;1.40;;;;;;;36.52;22.62;97993.97;5013373;28;20479;-82
2022/06/21 11:40:52;;;;;;;2.10;1.40;;;;;;;36.43;22.40;97999.28;5014287;28;20037;-83
2022/06/21 11:43:47;;;;;;;3.17;1.35;;;;;;;36.33;22.89;98004.97;5013932;28;20533;-81
2022/06/21 11:46:33;;;;;;;2.30;1.30;;;;;;;36.27;22.28;98000.75;5012870;28;20029;-83
2022/06/21 11:49:32;;;;;;;4.20;1.33;;;;;;;36.22;22.35;98001.63;5028386;28;20481;-82
2022/06/21 11:52:52;;;;;;;2.20;1.30;;;;;;;36.14;22.47;97999.63;5012645;28;20123;-82
2022/06/21 11:55:33;;;;;;;2.08;1.20;;;;;;;36.11;22.45;97989.38;4972968;28;20506;-83
2022/06/21 11:58:04;;;;;;;2.13;1.10;;;;;;;36.11;22.50;97995.59;4972674;28;20027;-82
2022/06/21 12:01:05;;;;;;;2.67;1.27;;;;;;;36.06;22.13;97990.28;4972761;28;20077;-82
2022/06/21 12:03:51;;;;;;;3.22;1.40;;;;;;;36.05;22.18;97988.66;4914934;29;20107;-81
2022/06/21 12:06:36;;;;;;;0.73;0.70;;;;;;;35.84;26.04;98002.63;4877127;29;20052;-80
2022/06/21 12:09:06;;;;;;;2.75;0.90;;;;;;;35.71;26.45;97997.97;4876962;29;20248;-86
2022/06/21 12:11:53;;;;;;;1.70;0.82;;;;;;;35.68;26.59;97993.16;4876975;29;20041;-82
2022/06/21 12:14:50;;;;;;;1.25;0.88;;;;;;;35.54;26.88;97985.00;4877476;29;20065;-80
2022/06/21 12:17:25;;;;;;;11.60;1.50;;;;;;;35.47;28.10;97993.53;4877647;29;20093;-78
2022/06/21 12:19:53;;;;;;;35.55;2.33;;;;;;;35.41;27.99;97983.88;4877153;29;20205;-79
2022/06/21 12:22:38;;;;;;;14.43;1.58;;;;;;;35.41;27.81;97969.47;4877256;29;20045;-81
2022/06/21 12:25:05;;;;;;;7.28;1.70;;;;;;;35.38;27.39;97976.31;4877566;29;20096;-79